createdAt,value
2022-07-27T00:01:09.654Z,3.95
2022-07-27T00:03:38.566Z,3.72
2022-07-27T00:06:06.935Z,4.20
2022-07-27T00:08:35.011Z,3.60
2022-07-27T00:11:03.420Z,3.70
2022-07-27T00:13:33.226Z,4.07
2022-07-27T00:16:01.221Z,3.40
2022-07-27T00:18:29.226Z,3.65
2022-07-27T00:20:57.130Z,3.90
2022-07-27T00:23:25.003Z,3.85
2022-07-27T00:25:52.915Z,3.72
2022-07-27T00:28:20.823Z,3.95
2022-07-27T00:30:50.212Z,3.95
2022-07-27T00:33:18.169Z,4.00
2022-07-27T00:35:46.438Z,3.83
2022-07-27T00:38:14.358Z,3.97
2022-07-27T00:40:42.255Z,3.63
2022-07-27T00:43:10.240Z,4.25
2022-07-27T00:45:38.223Z,3.22
2022-07-27T00:48:07.785Z,3.92
2022-07-27T00:50:36.414Z,4.03
2022-07-27T00:53:05.876Z,3.85
2022-07-27T00:55:34.227Z,4.00
2022-07-27T00:58:03.655Z,3.70
2022-07-27T01:00:31.813Z,4.07
2022-07-27T01:02:59.772Z,4.32
2022-07-27T01:05:36.703Z,4.05
2022-07-27T01:08:07.771Z,3.90
2022-07-27T01:10:36.464Z,3.67
2022-07-27T01:13:04.405Z,3.95
2022-07-27T01:15:35.227Z,4.07
2022-07-27T01:18:06.026Z,3.67
2022-07-27T01:20:37.420Z,3.72
2022-07-27T01:23:06.655Z,3.90
2022-07-27T01:25:34.903Z,3.55
2022-07-27T01:28:02.811Z,4.35
2022-07-27T01:30:31.198Z,3.45
2022-07-27T01:33:02.884Z,3.40
2022-07-27T01:35:31.057Z,3.53
2022-07-27T01:37:59.348Z,4.13
2022-07-27T01:40:28.597Z,3.65
2022-07-27T01:42:56.482Z,3.85
2022-07-27T01:45:24.386Z,3.70
2022-07-27T01:47:52.286Z,4.10
2022-07-27T01:50:20.143Z,3.92
2022-07-27T01:52:48.688Z,4.28
2022-07-27T01:55:16.623Z,3.70
2022-07-27T01:57:45.893Z,3.70
2022-07-27T02:00:14.959Z,3.65
2022-07-27T02:02:43.165Z,3.90
2022-07-27T02:05:12.441Z,3.60
2022-07-27T02:07:40.830Z,4.38
2022-07-27T02:10:10.237Z,4.00
2022-07-27T02:12:37.904Z,4.03
2022-07-27T02:15:13.414Z,3.42
2022-07-27T02:17:44.873Z,3.92
2022-07-27T02:20:14.760Z,4.15
2022-07-27T02:22:42.892Z,4.00
2022-07-27T02:25:11.745Z,3.28
2022-07-27T02:27:40.196Z,4.30
2022-07-27T02:30:11.131Z,3.70
2022-07-27T02:32:39.153Z,4.47
2022-07-27T02:35:18.596Z,4.25
2022-07-27T02:37:48.158Z,4.20
2022-07-27T02:40:17.285Z,3.90
2022-07-27T02:42:45.827Z,4.15
2022-07-27T02:45:15.188Z,4.38
2022-07-27T02:47:43.400Z,3.90
2022-07-27T02:50:11.658Z,3.70
2022-07-27T02:52:39.925Z,3.97
2022-07-27T02:55:09.429Z,4.20
2022-07-27T02:57:40.749Z,4.10
2022-07-27T03:00:11.392Z,4.00
2022-07-27T03:02:40.915Z,4.10
2022-07-27T03:05:10.655Z,4.05
2022-07-27T03:07:38.632Z,4.07
2022-07-27T03:10:07.706Z,4.10
2022-07-27T03:12:35.643Z,3.63
2022-07-27T03:15:03.549Z,4.05
2022-07-27T03:17:32.798Z,4.30
2022-07-27T03:20:02.018Z,3.97
2022-07-27T03:22:32.487Z,4.28
2022-07-27T03:25:00.513Z,4.13
2022-07-27T03:27:29.242Z,4.38
2022-07-27T03:29:57.340Z,3.83
2022-07-27T03:32:25.369Z,3.90
2022-07-27T03:34:53.476Z,3.72
2022-07-27T03:37:22.734Z,3.58
2022-07-27T03:39:50.649Z,3.88
2022-07-27T03:42:18.560Z,3.72
2022-07-27T03:44:46.488Z,3.55
2022-07-27T03:47:14.409Z,4.03
2022-07-27T03:49:42.287Z,3.75
2022-07-27T03:52:13.069Z,4.00
2022-07-27T03:54:46.589Z,3.70
2022-07-27T03:57:14.914Z,4.38
2022-07-27T03:59:42.793Z,4.40
2022-07-27T04:02:10.815Z,4.13
2022-07-27T04:04:38.719Z,3.67
2022-07-27T04:07:06.724Z,3.83
2022-07-27T04:09:36.127Z,4.03
2022-07-27T04:12:05.938Z,3.47
2022-07-27T04:14:34.189Z,3.65
2022-07-27T04:17:02.226Z,4.03
2022-07-27T04:19:30.205Z,3.58
2022-07-27T04:21:58.360Z,3.53
2022-07-27T04:24:26.334Z,3.42
2022-07-27T04:26:54.246Z,4.35
2022-07-27T04:29:23.939Z,3.80
2022-07-27T04:31:52.252Z,3.60
2022-07-27T04:34:21.598Z,4.25
2022-07-27T04:36:50.814Z,3.92
2022-07-27T04:39:18.723Z,3.83
2022-07-27T04:41:47.073Z,3.75
2022-07-27T04:44:14.975Z,3.67
2022-07-27T04:46:44.294Z,3.50
2022-07-27T04:49:12.481Z,3.80
2022-07-27T04:51:44.789Z,3.67
2022-07-27T04:54:13.331Z,3.90
2022-07-27T04:56:41.207Z,4.05
2022-07-27T04:59:09.400Z,3.40
2022-07-27T05:01:37.670Z,3.42
2022-07-27T05:04:07.054Z,3.55
2022-07-27T05:06:35.027Z,3.13
2022-07-27T05:09:02.976Z,3.15
2022-07-27T05:11:30.937Z,3.45
2022-07-27T05:13:58.917Z,3.30
2022-07-27T05:16:29.086Z,2.90
2022-07-27T05:18:57.448Z,3.05
2022-07-27T05:21:27.356Z,3.08
2022-07-27T05:23:55.956Z,2.90
2022-07-27T05:26:23.910Z,3.08
2022-07-27T05:28:52.089Z,3.03
2022-07-27T05:31:20.014Z,2.88
2022-07-27T05:33:49.276Z,3.08
2022-07-27T05:36:18.471Z,3.00
2022-07-27T05:38:47.742Z,2.70
2022-07-27T05:41:16.058Z,2.90
2022-07-27T05:43:44.610Z,2.88
2022-07-27T05:46:12.582Z,2.75
2022-07-27T05:48:40.617Z,2.83
2022-07-27T05:51:09.406Z,2.78
2022-07-27T05:53:37.354Z,2.92
2022-07-27T05:56:08.011Z,2.78
2022-07-27T05:58:36.197Z,3.10
2022-07-27T06:01:04.523Z,2.80
2022-07-27T06:03:32.608Z,2.85
2022-07-27T06:06:18.695Z,2.95
2022-07-27T06:08:46.581Z,3.40
2022-07-27T06:11:15.823Z,2.95
2022-07-27T06:13:43.708Z,2.35
2022-07-27T06:16:12.066Z,2.97
2022-07-27T06:18:40.265Z,3.00
2022-07-27T06:21:08.111Z,2.55
2022-07-27T06:23:36.055Z,2.47
2022-07-27T06:26:03.938Z,2.30
2022-07-27T06:28:33.340Z,2.65
2022-07-27T06:31:01.402Z,2.20
2022-07-27T06:33:30.782Z,2.35
2022-07-27T06:36:01.523Z,2.60
2022-07-27T06:38:30.198Z,2.42
2022-07-27T06:40:58.552Z,2.78
2022-07-27T06:43:28.136Z,3.00
2022-07-27T06:45:59.344Z,2.70
2022-07-27T06:48:27.519Z,2.80
2022-07-27T06:50:55.788Z,2.75
2022-07-27T06:53:24.384Z,2.40
2022-07-27T06:55:52.396Z,3.30
2022-07-27T06:58:22.691Z,2.60
2022-07-27T07:00:50.653Z,2.42
2022-07-27T07:03:20.017Z,2.92
2022-07-27T07:05:48.454Z,2.67
2022-07-27T07:08:16.445Z,2.95
2022-07-27T07:10:45.855Z,2.90
2022-07-27T07:13:14.265Z,3.00
2022-07-27T07:15:43.634Z,2.55
2022-07-27T07:18:13.580Z,2.65
2022-07-27T07:20:43.337Z,3.10
2022-07-27T07:23:12.128Z,2.50
2022-07-27T07:25:40.781Z,2.80
2022-07-27T07:28:09.050Z,3.03
2022-07-27T07:30:37.416Z,2.35
2022-07-27T07:33:05.726Z,2.70
2022-07-27T07:35:33.954Z,2.40
2022-07-27T07:38:03.431Z,2.60
2022-07-27T07:40:46.759Z,2.10
2022-07-27T07:43:15.168Z,2.35
2022-07-27T07:45:50.014Z,2.45
2022-07-27T07:48:19.670Z,2.25
2022-07-27T07:50:51.914Z,2.40
2022-07-27T07:53:23.575Z,2.20
2022-07-27T07:55:51.875Z,2.45
2022-07-27T07:58:20.187Z,2.47
2022-07-27T08:00:48.228Z,2.25
2022-07-27T08:03:16.312Z,2.50
2022-07-27T08:05:44.556Z,2.78
2022-07-27T08:08:12.521Z,2.63
2022-07-27T08:10:41.759Z,3.00
2022-07-27T08:13:09.682Z,2.70
2022-07-27T08:15:37.640Z,2.85
2022-07-27T08:18:06.624Z,2.90
2022-07-27T08:20:35.221Z,2.92
2022-07-27T08:23:03.783Z,3.10
2022-07-27T08:25:32.128Z,2.58
2022-07-27T08:28:01.975Z,3.08
2022-07-27T08:30:32.386Z,3.00
2022-07-27T08:33:02.980Z,2.83
2022-07-27T08:35:31.987Z,3.20
2022-07-27T08:38:00.484Z,2.55
2022-07-27T08:40:39.798Z,2.22
2022-07-27T08:43:11.688Z,2.20
2022-07-27T08:45:41.322Z,2.10
2022-07-27T08:48:13.709Z,1.60
2022-07-27T08:50:43.018Z,1.85
2022-07-27T08:53:12.950Z,1.60
2022-07-27T08:55:42.481Z,1.20
2022-07-27T08:58:13.472Z,1.67
2022-07-27T09:00:43.876Z,1.60
2022-07-27T09:03:18.426Z,1.90
2022-07-27T09:05:48.853Z,2.42
2022-07-27T09:08:21.631Z,2.08
2022-07-27T09:10:50.057Z,2.05
2022-07-27T09:13:21.509Z,2.20
2022-07-27T09:18:40.145Z,2.17
2022-07-27T09:21:14.737Z,1.98
2022-07-27T09:23:45.191Z,2.00
2022-07-27T09:26:30.550Z,1.83
2022-07-27T09:29:02.366Z,2.10
2022-07-27T09:31:30.610Z,2.10
2022-07-27T09:34:00.386Z,2.15
2022-07-27T09:36:30.562Z,2.33
2022-07-27T09:39:03.338Z,2.15
2022-07-27T09:41:43.481Z,2.13
2022-07-27T09:47:02.033Z,2.28
2022-07-27T09:49:32.298Z,2.20
2022-07-27T09:52:02.509Z,2.15
2022-07-27T09:54:44.177Z,2.13
2022-07-27T09:57:12.214Z,2.78
2022-07-27T09:59:41.518Z,2.03
2022-07-27T10:02:09.835Z,1.70
2022-07-27T10:04:37.901Z,2.00
2022-07-27T10:07:10.657Z,1.90
2022-07-27T10:09:41.076Z,2.13
2022-07-27T10:12:09.798Z,2.00
2022-07-27T10:14:37.753Z,1.80
2022-07-27T10:17:08.036Z,1.85
2022-07-27T10:19:45.184Z,2.03
2022-07-27T10:22:13.789Z,2.03
2022-07-27T10:24:41.696Z,1.90
2022-07-27T10:27:21.276Z,1.90
2022-07-27T10:29:50.469Z,1.50
2022-07-27T10:32:26.819Z,1.90
2022-07-27T10:35:17.830Z,2.13
2022-07-27T10:38:07.846Z,1.95
2022-07-27T10:40:35.846Z,2.15
2022-07-27T10:43:19.238Z,1.83
2022-07-27T10:46:00.034Z,1.98
2022-07-27T10:48:42.991Z,1.70
2022-07-27T10:51:13.558Z,1.70
2022-07-27T10:54:10.456Z,1.88
2022-07-27T10:56:46.165Z,1.67
2022-07-27T11:01:57.133Z,1.88
2022-07-27T11:04:27.194Z,1.67
2022-07-27T11:07:23.529Z,1.63
2022-07-27T11:10:15.642Z,2.10
2022-07-27T11:12:35.348Z,2.10
2022-07-27T11:15:04.655Z,2.00
2022-07-27T11:17:54.169Z,1.98
2022-07-27T11:20:28.746Z,1.77
2022-07-27T11:23:48.902Z,1.70
2022-07-27T11:26:02.406Z,1.55
2022-07-27T11:28:31.219Z,1.50
2022-07-27T11:30:59.977Z,1.73
2022-07-27T11:33:29.525Z,1.80
2022-07-27T11:36:01.372Z,1.95
2022-07-27T11:38:30.109Z,1.65
2022-07-27T11:41:12.924Z,1.80
2022-07-27T11:43:47.289Z,1.63
2022-07-27T11:46:22.942Z,1.95
2022-07-27T11:49:10.402Z,1.60
2022-07-27T11:51:41.881Z,2.05
2022-07-27T11:54:12.129Z,1.90
2022-07-27T11:56:43.307Z,1.80
2022-07-27T11:59:14.876Z,1.80
2022-07-27T12:01:45.951Z,1.90
2022-07-27T12:04:28.025Z,2.08
2022-07-27T12:07:01.314Z,1.67
2022-07-27T12:09:38.344Z,1.70
2022-07-27T12:12:12.011Z,1.73
2022-07-27T12:14:42.116Z,1.55
2022-07-27T12:17:22.211Z,1.83
2022-07-27T12:19:59.107Z,1.70
2022-07-27T12:22:37.226Z,1.92
2022-07-27T12:25:15.934Z,2.03
2022-07-27T12:27:56.284Z,1.80
2022-07-27T12:30:31.211Z,1.75
2022-07-27T12:32:59.876Z,1.80
2022-07-27T12:35:36.288Z,1.73
2022-07-27T12:38:09.074Z,1.90
2022-07-27T12:40:45.281Z,2.03
2022-07-27T12:43:17.531Z,1.88
2022-07-27T12:45:46.286Z,1.95
2022-07-27T12:48:17.421Z,1.80
2022-07-27T12:50:47.135Z,2.03
2022-07-27T12:53:17.373Z,1.70
2022-07-27T12:55:45.410Z,1.80
2022-07-27T12:58:14.922Z,1.90
2022-07-27T13:00:43.184Z,1.90
2022-07-27T13:03:11.532Z,1.90
2022-07-27T13:05:39.669Z,2.00
2022-07-27T13:08:08.425Z,1.83
2022-07-27T13:10:38.231Z,2.20
2022-07-27T13:13:06.934Z,1.98
2022-07-27T13:15:35.226Z,1.90
2022-07-27T13:18:03.510Z,1.90
2022-07-27T13:20:31.570Z,1.65
2022-07-27T13:22:59.513Z,2.03
2022-07-27T13:25:27.408Z,2.22
2022-07-27T13:27:56.665Z,2.00
2022-07-27T13:30:25.046Z,2.20
2022-07-27T13:32:53.126Z,2.20
2022-07-27T13:35:21.083Z,1.90
2022-07-27T13:37:49.640Z,2.17
2022-07-27T13:40:17.853Z,2.60
2022-07-27T13:42:45.918Z,2.03
2022-07-27T13:45:15.169Z,2.10
2022-07-27T13:47:43.510Z,2.20
2022-07-27T13:50:19.062Z,1.95
2022-07-27T13:52:48.794Z,2.20
2022-07-27T13:55:18.051Z,1.75
2022-07-27T13:57:47.031Z,1.88
2022-07-27T14:00:17.419Z,1.90
2022-07-27T14:02:46.059Z,2.42
2022-07-27T14:05:14.769Z,2.00
2022-07-27T14:07:44.246Z,2.30
2022-07-27T14:10:31.046Z,2.13
2022-07-27T14:13:07.224Z,2.10
2022-07-27T14:15:55.663Z,1.80
2022-07-27T14:18:26.453Z,2.40
2022-07-27T14:20:55.158Z,1.90
2022-07-27T14:23:23.226Z,1.95
2022-07-27T14:25:51.339Z,2.10
2022-07-27T14:28:19.708Z,2.28
2022-07-27T14:30:49.962Z,1.80
2022-07-27T14:33:18.434Z,2.10
2022-07-27T14:35:46.722Z,1.90
2022-07-27T14:38:24.864Z,2.08
2022-07-27T14:40:58.699Z,1.90
2022-07-27T14:43:27.291Z,2.10
2022-07-27T14:45:56.715Z,2.10
2022-07-27T14:48:37.094Z,1.83
2022-07-27T14:51:12.604Z,1.83
2022-07-27T14:53:40.588Z,1.88
2022-07-27T14:56:08.551Z,1.67
2022-07-27T14:58:36.438Z,1.85
2022-07-27T15:01:05.862Z,2.10
2022-07-27T15:03:33.875Z,1.98
2022-07-27T15:06:02.304Z,1.98
2022-07-27T15:08:30.233Z,2.75
2022-07-27T15:10:58.694Z,1.63
2022-07-27T15:13:26.683Z,1.90
2022-07-27T15:15:56.129Z,1.85
2022-07-27T15:18:25.551Z,1.80
2022-07-27T15:20:53.414Z,2.13
2022-07-27T15:23:22.288Z,2.00
2022-07-27T15:25:50.400Z,2.10
2022-07-27T15:28:18.231Z,2.00
2022-07-27T15:30:46.201Z,1.95
2022-07-27T15:33:14.109Z,2.05
2022-07-27T15:35:43.349Z,1.80
2022-07-27T15:38:11.223Z,2.13
2022-07-27T15:40:41.274Z,1.73
2022-07-27T15:43:11.690Z,2.00
2022-07-27T15:45:40.231Z,1.95
2022-07-27T15:48:09.864Z,2.00
2022-07-27T15:50:39.055Z,1.92
2022-07-27T15:53:08.821Z,2.20
2022-07-27T15:55:37.933Z,1.90
2022-07-27T15:58:06.757Z,2.00
2022-07-27T16:00:39.491Z,2.05
2022-07-27T16:03:09.739Z,2.25
2022-07-27T16:05:37.835Z,2.20
2022-07-27T16:08:07.496Z,2.50
2022-07-27T16:10:36.753Z,2.30
2022-07-27T16:13:05.471Z,2.60
2022-07-27T16:15:51.548Z,1.98
2022-07-27T16:18:19.840Z,2.08
2022-07-27T16:20:47.751Z,2.10
2022-07-27T16:23:19.150Z,2.30
2022-07-27T16:26:10.021Z,2.00
2022-07-27T16:28:39.839Z,2.33
2022-07-27T16:31:10.202Z,2.15
2022-07-27T16:33:38.734Z,2.33
2022-07-27T16:36:08.460Z,2.13
2022-07-27T16:38:36.731Z,2.25
2022-07-27T16:41:07.508Z,2.00
2022-07-27T16:43:38.260Z,2.55
2022-07-27T16:46:08.618Z,2.20
2022-07-27T16:48:42.395Z,2.03
2022-07-27T16:51:12.786Z,2.20
2022-07-27T16:53:42.184Z,2.08
2022-07-27T16:56:11.709Z,2.30
2022-07-27T16:58:40.170Z,2.10
2022-07-27T17:01:08.666Z,1.95
2022-07-27T17:03:36.668Z,2.03
2022-07-27T17:06:07.188Z,1.90
2022-07-27T17:08:36.247Z,2.00
2022-07-27T17:11:06.162Z,2.05
2022-07-27T17:13:36.247Z,1.98
2022-07-27T17:16:04.834Z,2.10
2022-07-27T17:18:39.428Z,2.20
2022-07-27T17:21:09.513Z,1.70
2022-07-27T17:23:38.757Z,2.03
2022-07-27T17:26:08.289Z,2.03
2022-07-27T17:28:39.476Z,1.70
2022-07-27T17:31:10.283Z,2.20
2022-07-27T17:33:38.937Z,2.17
2022-07-27T17:36:14.008Z,1.80
2022-07-27T17:38:43.009Z,1.85
2022-07-27T17:41:10.920Z,2.10
2022-07-27T17:43:40.291Z,2.05
2022-07-27T17:46:09.239Z,1.90
2022-07-27T17:48:38.053Z,2.50
2022-07-27T17:51:07.662Z,2.30
2022-07-27T17:53:35.781Z,2.17
2022-07-27T17:56:04.668Z,1.80
2022-07-27T17:58:32.580Z,2.10
2022-07-27T18:01:01.909Z,2.13
2022-07-27T18:03:29.829Z,1.90
2022-07-27T18:05:57.947Z,2.10
2022-07-27T18:08:26.008Z,1.92
2022-07-27T18:10:53.935Z,2.05
2022-07-27T18:13:21.926Z,1.80
2022-07-27T18:15:50.501Z,1.98
2022-07-27T18:18:22.032Z,1.60
2022-07-27T18:20:52.310Z,2.30
2022-07-27T18:23:20.843Z,2.10
2022-07-27T18:25:49.116Z,2.17
2022-07-27T18:28:18.915Z,2.05
2022-07-27T18:30:48.284Z,2.20
2022-07-27T18:33:16.679Z,2.20
2022-07-27T18:35:46.810Z,2.25
2022-07-27T18:38:16.633Z,2.15
2022-07-27T18:40:47.717Z,2.35
2022-07-27T18:43:16.742Z,2.30
2022-07-27T18:45:44.919Z,1.83
2022-07-27T18:48:12.838Z,2.10
2022-07-27T18:50:42.693Z,2.50
2022-07-27T18:53:11.942Z,3.33
2022-07-27T18:55:39.865Z,2.90
2022-07-27T18:58:07.918Z,2.85
2022-07-27T19:00:35.815Z,2.88
2022-07-27T19:03:04.120Z,2.65
2022-07-27T19:05:41.449Z,2.78
2022-07-27T19:08:14.124Z,2.30
2022-07-27T19:10:42.887Z,2.30
2022-07-27T19:13:11.093Z,2.55
2022-07-27T19:15:39.626Z,2.70
2022-07-27T19:18:08.318Z,2.25
2022-07-27T19:20:37.632Z,2.60
2022-07-27T19:23:05.696Z,2.70
2022-07-27T19:25:34.955Z,3.10
2022-07-27T19:28:03.844Z,2.80
2022-07-27T19:30:32.135Z,3.30
2022-07-27T19:33:00.275Z,3.17
2022-07-27T19:35:28.347Z,3.10
2022-07-27T19:37:56.274Z,3.20
2022-07-27T19:43:13.975Z,3.75
2022-07-27T19:45:42.716Z,3.33
2022-07-27T19:48:10.888Z,3.22
2022-07-27T19:50:39.956Z,3.65
2022-07-27T19:53:08.058Z,3.50
2022-07-27T19:55:35.946Z,3.60
2022-07-27T19:58:03.895Z,3.70
2022-07-27T20:00:34.667Z,4.10
2022-07-27T20:03:03.135Z,4.00
2022-07-27T20:05:31.518Z,4.00
2022-07-27T20:07:59.457Z,4.45
2022-07-27T20:10:27.385Z,3.80
2022-07-27T20:12:55.339Z,4.03
2022-07-27T20:15:23.326Z,4.05
2022-07-27T20:17:52.598Z,4.60
2022-07-27T20:20:20.722Z,3.97
2022-07-27T20:22:48.738Z,3.95
2022-07-27T20:25:18.376Z,4.07
2022-07-27T20:27:46.905Z,4.18
2022-07-27T20:30:17.229Z,4.18
2022-07-27T20:32:45.917Z,4.20
2022-07-27T20:35:15.419Z,4.47
2022-07-27T20:37:43.955Z,4.38
2022-07-27T20:40:12.715Z,4.20
2022-07-27T20:42:41.282Z,4.55
2022-07-27T20:45:11.375Z,4.45
2022-07-27T20:47:39.538Z,4.50
2022-07-27T20:50:09.219Z,4.50
2022-07-27T20:52:39.127Z,4.10
2022-07-27T20:55:08.621Z,4.05
2022-07-27T20:57:36.881Z,4.50
2022-07-27T21:00:07.497Z,4.05
2022-07-27T21:02:36.175Z,4.22
2022-07-27T21:05:04.386Z,4.03
2022-07-27T21:07:32.294Z,4.63
2022-07-27T21:10:01.577Z,4.53
2022-07-27T21:12:29.482Z,4.45
2022-07-27T21:14:58.185Z,4.40
2022-07-27T21:17:26.330Z,4.55
2022-07-27T21:19:54.343Z,4.45
2022-07-27T21:22:22.260Z,4.22
2022-07-27T21:24:49.679Z,4.20
2022-07-27T21:27:21.270Z,4.03
2022-07-27T21:29:49.898Z,4.53
2022-07-27T21:32:18.163Z,4.30
2022-07-27T21:34:46.414Z,4.07
2022-07-27T21:37:14.377Z,4.25
2022-07-27T21:39:42.291Z,4.18
2022-07-27T21:42:10.177Z,4.53
2022-07-27T21:44:39.532Z,4.55
2022-07-27T21:47:11.563Z,4.32
2022-07-27T21:49:41.989Z,4.18
2022-07-27T21:52:11.106Z,4.57
2022-07-27T21:54:39.277Z,4.90
2022-07-27T21:57:07.197Z,4.70
2022-07-27T21:59:35.117Z,4.45
2022-07-27T22:02:04.541Z,4.35
2022-07-27T22:04:32.554Z,4.20
2022-07-27T22:07:00.599Z,4.50
2022-07-27T22:09:28.605Z,4.68
2022-07-27T22:11:56.695Z,4.40
2022-07-27T22:14:25.009Z,4.50
2022-07-27T22:16:53.940Z,4.80
2022-07-27T22:19:23.376Z,4.75
2022-07-27T22:21:51.283Z,4.85
2022-07-27T22:24:19.194Z,4.93
2022-07-27T22:26:47.221Z,4.70
2022-07-27T22:29:15.078Z,4.57
2022-07-27T22:31:43.110Z,4.65
2022-07-27T22:34:11.472Z,4.15
2022-07-27T22:36:40.948Z,4.60
2022-07-27T22:39:08.920Z,4.50
2022-07-27T22:41:36.829Z,4.85
2022-07-27T22:44:04.901Z,4.90
2022-07-27T22:46:33.084Z,4.45
2022-07-27T22:49:01.086Z,4.53
2022-07-27T22:51:49.635Z,4.82
2022-07-27T22:54:18.741Z,4.72
2022-07-27T22:56:47.248Z,4.47
2022-07-27T22:59:15.168Z,4.85
2022-07-27T23:01:47.206Z,4.57
2022-07-27T23:04:17.169Z,4.97
2022-07-27T23:06:45.746Z,4.70
2022-07-27T23:09:14.018Z,4.95
2022-07-27T23:11:44.025Z,5.25
2022-07-27T23:14:13.457Z,5.05
2022-07-27T23:16:41.827Z,4.88
2022-07-27T23:19:10.046Z,5.25
2022-07-27T23:21:39.528Z,4.68
2022-07-27T23:24:10.951Z,5.30
2022-07-27T23:26:39.367Z,5.00
2022-07-27T23:29:08.636Z,5.18
2022-07-27T23:31:36.768Z,5.75
2022-07-27T23:34:04.750Z,5.47
2022-07-27T23:36:32.675Z,5.10
2022-07-27T23:39:00.575Z,5.25
2022-07-27T23:41:28.663Z,5.18
2022-07-27T23:43:56.598Z,5.05
2022-07-27T23:46:25.876Z,5.32
2022-07-27T23:48:53.897Z,5.18
2022-07-27T23:51:22.204Z,5.57
2022-07-27T23:53:50.440Z,5.10
2022-07-27T23:56:18.363Z,5.90
2022-07-27T23:58:46.228Z,5.25
